Eastside, Florida
Current Conditions -  °F | °C
As of 5:13 PM on Sunday 21 Dec 2014 (Local Time) from KPAM Reporting Station
Haze Haze  
Wind Chill: 57°   Ceiling: 300
Heat Index: 57°   Visibility: 5mi
Dew Point: 57°   Wind: 5mph
Humidity: 100%   Direction: 20°NNE
Pressure: 30.04"   Gusts: NA
Location:  30.1957°N, 85.4833°W
Report Text: KPAM 212313Z AUTO 02004KT 5SM R14/5000FT BR OVC003 14/14 A3004 RMK AO2
Loading
Personal Weather Stations






























Interactive Weather Map New forecast layout! Learn more

10-Day Weather Forecast

Advertisements
Track Severe Weather on mobile